Time;durP1;ratioP1;P1;durP2;ratioP2;P2;SDS_P1;SDS_P2;PMS_P1;PMS_P2;Temp;Humidity;BMP_temperature;BMP_pressure;BME280_temperature;BME280_humidity;BME280_pressure;Samples;Min_cycle;Max_cycle;Signal;HPM_P1;HPM_P2
2022/12/25 00:00:15;;;;;;;688.80;621.50;;;5.40;99.90;;;;;;5060330;28;20458;-84
2022/12/25 00:02:41;;;;;;;682.63;613.70;;;5.50;99.90;;;;;;5060384;28;21040;-83
2022/12/25 00:05:09;;;;;;;685.17;616.67;;;5.70;99.90;;;;;;5060466;28;20475;-83
2022/12/25 00:07:35;;;;;;;684.23;614.73;;;5.80;99.90;;;;;;5060422;28;20459;-81
2022/12/25 00:10:03;;;;;;;685.37;616.77;;;5.80;99.90;;;;;;5060465;28;20836;-83
2022/12/25 00:12:31;;;;;;;687.13;617.33;;;5.90;99.90;;;;;;5059968;28;20530;-83
2022/12/25 00:14:58;;;;;;;693.00;624.70;;;5.90;99.90;;;;;;5059829;28;20443;-83
2022/12/25 00:17:24;;;;;;;692.77;623.13;;;6.00;99.90;;;;;;5060505;28;20455;-83
2022/12/25 00:19:51;;;;;;;689.00;619.80;;;6.00;99.90;;;;;;5059993;28;20447;-83
2022/12/25 00:22:18;;;;;;;686.03;615.80;;;6.00;99.90;;;;;;5059878;28;20451;-83
2022/12/25 00:27:42;;;;;;;691.07;621.07;;;6.20;99.90;;;;;;5054777;28;20443;-84
2022/12/25 00:30:09;;;;;;;697.60;627.57;;;6.30;99.90;;;;;;5059797;28;20451;-83
2022/12/25 00:32:36;;;;;;;704.27;634.53;;;6.30;99.90;;;;;;5059948;28;20869;-83
2022/12/25 00:35:04;;;;;;;711.73;640.90;;;6.40;99.90;;;;;;5060631;28;20444;-83
2022/12/25 00:37:31;;;;;;;685.73;616.53;;;6.40;99.90;;;;;;5060054;28;20462;-83
2022/12/25 00:39:57;;;;;;;684.00;614.40;;;6.50;99.90;;;;;;5059439;28;20452;-83
2022/12/25 00:42:48;;;;;;;697.13;628.70;;;6.40;99.90;;;;;;5058927;28;20831;-82
2022/12/25 00:45:15;;;;;;;694.00;625.47;;;6.30;99.90;;;;;;5060268;28;20475;-84
2022/12/25 00:47:41;;;;;;;682.57;614.10;;;6.40;99.90;;;;;;5059130;28;20542;-84
2022/12/25 00:50:09;;;;;;;683.43;615.90;;;6.40;99.90;;;;;;5058898;28;20451;-82
2022/12/25 00:52:36;;;;;;;680.43;613.10;;;6.50;99.90;;;;;;5057861;28;20474;-83
2022/12/25 00:55:03;;;;;;;683.57;615.30;;;6.50;99.90;;;;;;5059809;28;20830;-84
2022/12/25 00:57:29;;;;;;;674.97;607.37;;;6.60;99.90;;;;;;5059076;28;20466;-83
2022/12/25 00:59:57;;;;;;;669.83;602.07;;;6.50;99.90;;;;;;5038864;28;20456;-83
2022/12/25 01:02:24;;;;;;;670.30;601.80;;;6.60;99.90;;;;;;5038703;28;20453;-83
2022/12/25 01:04:52;;;;;;;680.40;610.77;;;6.70;99.90;;;;;;5038852;28;20498;-83
2022/12/25 01:07:20;;;;;;;657.17;588.50;;;6.70;99.90;;;;;;5038965;28;20452;-83
2022/12/25 01:12:33;;;;;;;674.33;607.00;;;6.70;99.90;;;;;;5058535;28;20434;-83
2022/12/25 01:15:01;;;;;;;679.73;612.73;;;6.70;99.90;;;;;;5058232;28;20452;-83
2022/12/25 01:17:28;;;;;;;679.70;612.90;;;6.70;99.90;;;;;;5058661;28;20459;-84
2022/12/25 01:19:55;;;;;;;677.03;609.03;;;6.70;99.90;;;;;;5058529;28;20463;-83
2022/12/25 01:22:22;;;;;;;675.20;607.50;;;6.70;99.90;;;;;;5057773;28;20455;-82
2022/12/25 01:24:48;;;;;;;665.33;597.83;;;6.70;99.90;;;;;;5057858;28;20455;-83
2022/12/25 01:27:15;;;;;;;663.87;596.80;;;6.80;99.90;;;;;;5058948;28;20451;-83
2022/12/25 01:29:42;;;;;;;667.60;600.20;;;6.80;99.90;;;;;;5058976;28;20947;-83
2022/12/25 01:32:10;;;;;;;671.97;604.83;;;6.80;99.90;;;;;;5058278;28;20946;-83
2022/12/25 01:34:37;;;;;;;674.80;608.13;;;6.90;99.90;;;;;;5058665;28;20474;-83
2022/12/25 01:37:04;;;;;;;663.50;596.10;;;7.00;99.90;;;;;;5058606;28;20455;-83
2022/12/25 01:39:30;;;;;;;657.50;589.20;;;7.00;99.90;;;;;;5057921;28;20451;-83
2022/12/25 01:41:58;;;;;;;671.10;604.30;;;7.10;99.90;;;;;;5058215;28;20466;-83
2022/12/25 01:45:01;;;;;;;687.97;621.77;;;7.20;99.90;;;;;;5057955;28;20490;-83
2022/12/25 01:47:30;;;;;;;681.80;615.23;;;7.20;99.90;;;;;;5059216;28;20447;-83
2022/12/25 01:49:57;;;;;;;682.07;615.20;;;7.20;99.90;;;;;;5061955;28;20548;-83
2022/12/25 01:52:25;;;;;;;676.50;610.10;;;7.10;99.90;;;;;;5061891;28;20462;-83
2022/12/25 01:54:55;;;;;;;685.83;619.63;;;7.10;99.90;;;;;;5062214;28;20445;-83
2022/12/25 01:57:25;;;;;;;683.43;617.63;;;7.20;99.90;;;;;;5062775;28;20451;-83
2022/12/25 01:59:53;;;;;;;680.50;613.93;;;7.10;99.90;;;;;;5061792;28;20447;-83
2022/12/25 02:02:20;;;;;;;676.37;610.53;;;7.20;99.90;;;;;;5061275;28;20453;-83
2022/12/25 02:04:54;;;;;;;689.50;622.30;;;7.10;99.90;;;;;;5062760;28;20451;-83
2022/12/25 02:07:22;;;;;;;682.67;617.43;;;7.10;99.90;;;;;;5062509;28;20479;-83
2022/12/25 02:09:50;;;;;;;703.10;636.57;;;7.10;99.90;;;;;;5062567;28;20832;-83
2022/12/25 02:12:20;;;;;;;703.43;636.63;;;7.20;99.90;;;;;;5062156;28;20822;-83
2022/12/25 02:14:49;;;;;;;713.90;647.60;;;7.30;99.90;;;;;;5062774;28;20507;-83
2022/12/25 02:17:26;;;;;;;702.97;637.40;;;7.40;99.90;;;;;;5062312;28;20454;-83
2022/12/25 02:20:26;;;;;;;683.70;618.70;;;7.40;99.90;;;;;;5062646;28;20458;-83
2022/12/25 02:23:11;;;;;;;668.90;604.00;;;7.30;99.90;;;;;;5061066;28;20466;-83
2022/12/25 02:25:51;;;;;;;670.07;605.47;;;7.40;99.90;;;;;;5062322;28;20473;-83
2022/12/25 02:28:25;;;;;;;669.53;605.40;;;7.30;99.90;;;;;;5062062;28;20825;-83
2022/12/25 02:30:56;;;;;;;668.50;604.30;;;7.30;99.90;;;;;;5061782;28;20470;-82
2022/12/25 02:36:16;;;;;;;679.50;614.40;;;7.30;99.90;;;;;;5061245;28;20462;-83
2022/12/25 02:41:30;;;;;;;668.67;602.40;;;7.40;99.90;;;;;;5060251;28;20504;-83
2022/12/25 03:11:52;;;;;;;665.23;602.57;;;7.80;99.90;;;;;;5059938;28;20496;-83
2022/12/25 03:17:05;;;;;;;670.30;608.70;;;7.80;99.90;;;;;;5061111;28;20445;-83
2022/12/25 03:28:07;;;;;;;665.67;605.50;;;7.70;99.90;;;;;;4985334;28;20451;-82
2022/12/25 03:33:35;;;;;;;670.97;609.93;;;7.70;99.90;;;;;;5049070;28;20467;-84
2022/12/25 03:36:12;;;;;;;663.93;601.33;;;7.70;99.90;;;;;;5061657;28;20462;-83
2022/12/25 04:36:55;;;;;;;668.80;611.10;;;7.80;99.90;;;;;;5043813;28;20449;-83
2022/12/25 04:39:23;;;;;;;654.50;596.73;;;7.90;99.90;;;;;;5060882;28;20450;-83
2022/12/25 04:41:50;;;;;;;656.47;598.57;;;7.90;99.90;;;;;;5060253;28;20448;-83
2022/12/25 04:44:17;;;;;;;662.43;604.87;;;7.90;99.90;;;;;;5059377;28;20471;-83
2022/12/25 04:46:44;;;;;;;669.33;612.00;;;7.80;99.90;;;;;;5062424;28;20475;-82
2022/12/25 04:49:10;;;;;;;673.63;617.00;;;7.80;99.90;;;;;;5061593;28;20455;-82
2022/12/25 04:51:37;;;;;;;660.27;603.27;;;7.80;99.90;;;;;;5065515;28;20463;-83
2022/12/25 04:54:04;;;;;;;660.33;604.17;;;7.80;99.90;;;;;;5060928;28;20471;-84
2022/12/25 04:56:33;;;;;;;655.53;598.70;;;7.70;99.90;;;;;;5058538;28;20459;-83
2022/12/25 04:59:00;;;;;;;665.43;608.27;;;7.70;99.90;;;;;;5051626;28;20463;-83
2022/12/25 05:01:27;;;;;;;660.50;602.37;;;7.60;99.90;;;;;;5053886;28;20463;-84
2022/12/25 05:03:54;;;;;;;669.27;611.27;;;7.60;99.90;;;;;;5053636;28;20464;-83
2022/12/25 05:06:20;;;;;;;664.93;606.80;;;7.60;99.90;;;;;;5057481;28;20566;-82
2022/12/25 05:08:47;;;;;;;669.67;611.83;;;7.60;99.90;;;;;;5059697;28;20451;-83
2022/12/25 05:11:16;;;;;;;663.63;605.07;;;7.50;99.90;;;;;;5059190;28;20901;-83
2022/12/25 05:13:44;;;;;;;667.43;609.03;;;7.50;99.90;;;;;;5059438;28;20847;-85
2022/12/25 05:16:13;;;;;;;662.67;603.27;;;7.40;99.90;;;;;;5061144;28;20452;-83
2022/12/25 05:18:40;;;;;;;658.43;599.30;;;7.50;99.90;;;;;;5059689;28;20458;-84
2022/12/25 05:21:07;;;;;;;655.90;595.30;;;7.30;99.90;;;;;;5062568;28;20943;-84
2022/12/25 05:23:34;;;;;;;650.67;587.87;;;7.40;99.90;;;;;;5059077;28;20468;-83
2022/12/25 05:26:04;;;;;;;651.60;587.57;;;7.40;99.90;;;;;;5058122;28;20998;-83
2022/12/25 05:28:31;;;;;;;654.60;590.80;;;7.50;99.90;;;;;;5059690;28;20455;-83
2022/12/25 05:30:59;;;;;;;654.83;591.07;;;7.40;99.90;;;;;;5058680;28;20978;-83
2022/12/25 05:33:26;;;;;;;670.10;607.33;;;7.30;99.90;;;;;;5058689;28;20813;-83
2022/12/25 05:35:52;;;;;;;688.03;622.27;;;7.20;99.90;;;;;;5059990;28;20948;-83
2022/12/25 05:38:19;;;;;;;680.90;614.27;;;7.30;99.90;;;;;;5040609;28;20456;-83
2022/12/25 05:40:46;;;;;;;678.73;613.27;;;7.30;99.90;;;;;;5039890;28;20456;-83
2022/12/25 05:43:13;;;;;;;683.83;618.57;;;7.20;99.90;;;;;;5039045;28;20480;-83
2022/12/25 05:45:39;;;;;;;662.80;599.27;;;7.20;99.90;;;;;;5040244;28;20456;-83
2022/12/25 05:48:09;;;;;;;658.70;595.20;;;7.20;99.90;;;;;;5039604;28;20487;-83
2022/12/25 05:50:36;;;;;;;649.50;586.30;;;7.30;99.90;;;;;;5058994;28;20472;-83
2022/12/25 05:53:04;;;;;;;662.77;600.07;;;7.30;99.90;;;;;;5059117;28;20459;-83
2022/12/25 05:55:33;;;;;;;669.20;606.70;;;7.40;99.90;;;;;;5058608;28;20451;-83
2022/12/25 05:58:00;;;;;;;651.90;588.90;;;7.40;99.90;;;;;;5058244;28;20443;-84
2022/12/25 06:00:27;;;;;;;644.30;580.73;;;7.50;99.90;;;;;;5060136;28;20451;-83
2022/12/25 06:02:54;;;;;;;642.93;579.60;;;7.60;99.90;;;;;;5060826;28;20463;-83
2022/12/25 06:05:22;;;;;;;657.27;594.60;;;7.60;99.90;;;;;;5059137;28;20451;-83
2022/12/25 06:07:49;;;;;;;660.50;597.30;;;7.60;99.90;;;;;;5058499;28;20479;-83
2022/12/25 06:10:15;;;;;;;649.97;586.97;;;7.60;99.90;;;;;;5059578;28;20455;-84
2022/12/25 06:12:42;;;;;;;655.93;591.57;;;7.60;99.90;;;;;;5060153;28;20495;-84
2022/12/25 06:15:09;;;;;;;669.20;604.60;;;7.70;99.90;;;;;;5058992;28;20470;-85
2022/12/25 06:17:36;;;;;;;665.40;601.30;;;7.80;99.90;;;;;;5059798;28;20453;-83
2022/12/25 06:20:04;;;;;;;659.27;595.40;;;7.90;99.90;;;;;;5058807;28;20454;-84
2022/12/25 06:22:33;;;;;;;665.00;601.30;;;7.90;99.90;;;;;;5059075;28;20455;-82
2022/12/25 06:25:00;;;;;;;676.00;613.07;;;8.00;99.90;;;;;;5058694;28;20456;-84
2022/12/25 06:27:27;;;;;;;660.87;598.43;;;8.00;99.90;;;;;;5059781;28;20483;-83
2022/12/25 06:29:54;;;;;;;674.27;612.33;;;8.00;99.90;;;;;;5059795;28;20448;-83
2022/12/25 06:32:41;;;;;;;664.90;604.90;;;8.10;99.90;;;;;;5059598;28;20557;-82
2022/12/25 06:35:08;;;;;;;674.40;615.30;;;8.10;99.90;;;;;;5061679;28;20839;-84
2022/12/25 06:37:36;;;;;;;681.20;621.80;;;8.10;99.90;;;;;;5062481;28;20449;-83
2022/12/25 06:40:04;;;;;;;692.27;634.20;;;8.10;99.90;;;;;;5056718;28;20542;-83
2022/12/25 06:42:30;;;;;;;694.60;636.97;;;8.10;99.90;;;;;;5056581;28;20447;-83
2022/12/25 06:44:57;;;;;;;707.43;649.63;;;8.20;99.90;;;;;;5062856;28;20831;-84
2022/12/25 06:47:24;;;;;;;683.50;625.80;;;8.20;99.90;;;;;;5061658;28;20471;-83
2022/12/25 06:49:51;;;;;;;669.63;612.60;;;8.20;99.90;;;;;;5062090;28;20443;-83
2022/12/25 06:52:17;;;;;;;670.50;614.50;;;8.30;99.90;;;;;;5062522;28;20454;-84
2022/12/25 06:54:46;;;;;;;676.10;619.50;;;8.20;99.90;;;;;;5063048;28;20467;-83
2022/12/25 07:00:14;;;;;;;669.00;614.33;;;8.20;99.90;;;;;;5046507;28;20507;-84
2022/12/25 07:02:46;;;;;;;674.13;618.30;;;8.20;99.90;;;;;;5063106;28;20475;-83
2022/12/25 07:05:13;;;;;;;674.97;619.37;;;8.30;99.90;;;;;;5062060;28;20452;-83
2022/12/25 07:07:48;;;;;;;673.57;618.40;;;8.30;99.90;;;;;;5062011;28;20477;-82
2022/12/25 07:10:16;;;;;;;679.00;622.10;;;8.30;99.90;;;;;;5062096;28;20845;-82
2022/12/25 07:13:04;;;;;;;679.50;621.47;;;8.40;99.90;;;;;;5064129;28;20467;-83
2022/12/25 07:15:57;;;;;;;690.40;634.30;;;8.50;99.90;;;;;;5063003;28;20542;-83
2022/12/25 07:18:25;;;;;;;689.63;633.97;;;8.50;99.90;;;;;;5057197;28;20459;-84
2022/12/25 07:20:51;;;;;;;695.40;641.80;;;8.50;99.90;;;;;;5062334;28;20474;-83
2022/12/25 07:23:18;;;;;;;688.80;635.97;;;8.50;99.90;;;;;;5063108;28;20988;-84
2022/12/25 07:25:54;;;;;;;692.80;640.47;;;8.50;99.90;;;;;;5061168;28;20454;-84
2022/12/25 07:31:52;;;;;;;676.93;625.10;;;8.50;99.90;;;;;;5056094;28;20447;-83
2022/12/25 07:34:19;;;;;;;676.90;624.53;;;8.50;99.90;;;;;;5060391;28;20762;-84
2022/12/25 07:36:47;;;;;;;668.33;616.33;;;8.40;99.90;;;;;;5060544;28;20443;-83
2022/12/25 07:42:11;;;;;;;662.77;609.60;;;8.30;99.90;;;;;;5053938;28;20534;-83
2022/12/25 07:44:38;;;;;;;668.50;615.10;;;8.40;99.90;;;;;;5061854;28;20487;-83
2022/12/25 07:47:05;;;;;;;667.27;613.87;;;8.30;99.90;;;;;;5061019;28;20506;-83
2022/12/25 07:52:12;;;;;;;658.70;605.87;;;8.40;99.90;;;;;;5059220;28;20447;-83
2022/12/25 07:54:39;;;;;;;661.53;607.30;;;8.40;99.90;;;;;;5062011;28;20464;-83
2022/12/25 07:57:07;;;;;;;662.90;608.90;;;8.40;99.90;;;;;;5055009;28;20452;-83
2022/12/25 07:59:35;;;;;;;663.53;609.40;;;8.40;99.90;;;;;;5054794;28;20443;-82
2022/12/25 08:02:02;;;;;;;662.17;607.77;;;8.40;99.90;;;;;;5059145;28;20503;-83
2022/12/25 08:04:29;;;;;;;668.60;613.70;;;8.50;99.90;;;;;;5061111;28;20463;-83
2022/12/25 08:06:55;;;;;;;663.67;609.40;;;8.50;99.90;;;;;;5062853;28;20471;-83
2022/12/25 08:09:22;;;;;;;656.63;602.60;;;8.60;99.90;;;;;;5064861;28;20456;-83
2022/12/25 08:12:31;;;;;;;654.23;599.47;;;8.50;99.90;;;;;;5065657;28;20452;-83
2022/12/25 08:18:55;;;;;;;653.30;598.80;;;8.70;99.90;;;;;;5052700;28;20435;-83
2022/12/25 08:21:23;;;;;;;650.40;596.60;;;8.70;99.90;;;;;;5053827;28;20443;-83
2022/12/25 08:23:49;;;;;;;648.77;596.90;;;8.80;99.90;;;;;;5064752;28;20475;-83
2022/12/25 08:26:18;;;;;;;648.47;596.43;;;8.80;99.90;;;;;;5063067;28;20479;-83
2022/12/25 08:28:46;;;;;;;647.80;597.13;;;8.90;99.90;;;;;;5063910;28;20482;-83
2022/12/25 08:31:17;;;;;;;645.63;595.90;;;9.00;99.90;;;;;;5064081;28;20455;-83
2022/12/25 08:33:44;;;;;;;651.83;602.50;;;9.00;99.90;;;;;;5064607;28;20473;-84
2022/12/25 08:36:12;;;;;;;644.07;594.67;;;9.00;99.90;;;;;;5064466;28;20463;-86
2022/12/25 08:38:41;;;;;;;635.27;586.97;;;9.00;99.90;;;;;;5062406;28;20455;-85
2022/12/25 08:41:08;;;;;;;624.93;578.07;;;9.10;99.90;;;;;;5052987;28;20454;-84
2022/12/25 08:43:35;;;;;;;627.60;580.90;;;9.00;99.90;;;;;;5063534;28;20493;-83
2022/12/25 08:46:02;;;;;;;629.53;583.53;;;9.10;99.90;;;;;;5068318;28;20509;-82
2022/12/25 08:48:29;;;;;;;620.73;574.07;;;9.10;99.90;;;;;;5071527;28;20467;-83
2022/12/25 08:50:56;;;;;;;620.87;574.83;;;9.10;99.90;;;;;;5070765;28;20445;-84
2022/12/25 08:53:23;;;;;;;625.13;579.70;;;9.10;99.90;;;;;;5070650;28;20480;-84
2022/12/25 08:55:59;;;;;;;619.40;573.70;;;9.10;99.90;;;;;;5070056;28;20454;-83
2022/12/25 08:58:26;;;;;;;645.23;597.50;;;9.10;99.90;;;;;;5064659;28;20444;-84
2022/12/25 09:00:52;;;;;;;646.70;597.23;;;9.10;99.90;;;;;;5066881;28;20443;-83
2022/12/25 09:03:19;;;;;;;659.50;608.70;;;9.10;99.90;;;;;;5067390;28;20816;-83
2022/12/25 09:06:09;;;;;;;665.83;614.30;;;9.20;99.90;;;;;;5069679;28;20454;-83
2022/12/25 09:11:45;;;;;;;658.57;605.13;;;9.30;99.90;;;;;;5063763;28;20454;-83
2022/12/25 09:14:13;;;;;;;665.37;611.87;;;9.20;99.90;;;;;;5069119;28;20463;-83
2022/12/25 09:16:39;;;;;;;673.43;618.73;;;9.20;99.90;;;;;;5066214;28;20443;-83
2022/12/25 09:19:52;;;;;;;663.10;608.27;;;9.20;99.90;;;;;;5068395;28;20804;-82
2022/12/25 09:25:14;;;;;;;670.93;614.87;;;9.20;99.90;;;;;;5058973;28;20485;-83
2022/12/25 09:28:06;;;;;;;666.47;610.30;;;9.20;99.90;;;;;;5065387;28;20544;-83
2022/12/25 09:31:01;;;;;;;668.13;612.53;;;9.20;99.90;;;;;;5061870;28;20470;-82
2022/12/25 09:33:58;;;;;;;667.20;611.40;;;9.20;99.90;;;;;;5053994;28;20840;-83
2022/12/25 09:36:25;;;;;;;672.00;614.90;;;9.10;99.90;;;;;;4972882;28;20900;-82
2022/12/25 09:38:52;;;;;;;653.70;595.20;;;9.30;99.90;;;;;;5062672;28;20450;-83
2022/12/25 09:41:48;;;;;;;637.03;578.70;;;9.20;99.90;;;;;;5061960;28;20451;-83
2022/12/25 09:44:21;;;;;;;642.10;581.53;;;9.20;99.90;;;;;;5059265;28;20475;-83
2022/12/25 09:47:48;;;;;;;646.70;586.10;;;9.20;99.90;;;;;;5062338;28;20462;-82
2022/12/25 09:53:23;;;;;;;658.80;596.13;;;9.10;99.90;;;;;;4986075;28;20984;-82
2022/12/25 09:55:59;;;;;;;659.93;597.20;;;9.20;99.90;;;;;;5047136;28;20450;-83
2022/12/25 09:58:26;;;;;;;650.97;587.57;;;9.20;99.90;;;;;;5057761;28;20427;-84
2022/12/25 10:01:03;;;;;;;655.10;590.33;;;9.20;99.90;;;;;;5068286;28;20458;-84
2022/12/25 10:03:44;;;;;;;659.63;595.67;;;9.30;99.90;;;;;;5066459;28;20557;-82
2022/12/25 10:06:35;;;;;;;663.77;597.77;;;9.30;99.90;;;;;;5068147;28;20439;-82
2022/12/25 10:09:33;;;;;;;662.53;596.47;;;9.30;99.90;;;;;;5066122;28;20479;-82
2022/12/25 10:15:25;;;;;;;648.57;583.37;;;9.30;99.90;;;;;;5065773;28;20454;-82
2022/12/25 10:18:33;;;;;;;654.10;588.80;;;9.40;99.90;;;;;;5068653;28;20527;-84
2022/12/25 10:21:03;;;;;;;652.37;587.30;;;9.30;99.90;;;;;;5063926;28;20455;-83
2022/12/25 10:23:34;;;;;;;661.60;596.40;;;9.50;99.90;;;;;;5059525;28;20467;-83
2022/12/25 10:26:01;;;;;;;661.73;597.00;;;9.40;99.90;;;;;;5068274;28;20448;-83
2022/12/25 10:29:04;;;;;;;656.90;592.40;;;9.50;99.90;;;;;;5067490;28;20510;-83
2022/12/25 10:32:27;;;;;;;;;;;;;;;;;;;;;
2022/12/25 10:35:28;;;;;;;661.57;595.83;;;9.50;99.90;;;;;;4951039;29;20451;-83
2022/12/25 10:38:35;;;;;;;661.40;596.27;;;9.50;99.90;;;;;;4953907;29;20479;-83
2022/12/25 10:51:42;;;;;;;644.83;580.97;;;9.50;99.90;;;;;;4920855;28;20445;-83
2022/12/25 10:54:45;;;;;;;649.87;586.30;;;9.40;99.90;;;;;;5003493;28;20556;-84
2022/12/25 11:07:50;;;;;;;646.10;583.00;;;9.60;99.90;;;;;;4866756;29;20456;-84
2022/12/25 11:10:32;;;;;;;638.17;574.87;;;9.60;99.90;;;;;;4939271;28;20450;-84
2022/12/25 11:12:59;;;;;;;636.93;573.13;;;9.60;99.90;;;;;;4981605;28;20471;-81
2022/12/25 11:15:34;;;;;;;647.07;582.77;;;9.70;99.90;;;;;;5061083;28;20454;-84
2022/12/25 11:18:03;;;;;;;647.80;583.87;;;9.70;99.90;;;;;;5060282;28;20443;-85
2022/12/25 11:20:54;;;;;;;647.60;582.80;;;9.70;99.90;;;;;;5059724;28;20482;-83
2022/12/25 11:23:23;;;;;;;643.10;579.23;;;9.70;99.90;;;;;;5060549;28;20467;-83
2022/12/25 11:26:02;;;;;;;652.07;587.17;;;9.90;99.90;;;;;;5061197;28;21109;-83
2022/12/25 11:28:31;;;;;;;649.00;585.33;;;9.90;99.90;;;;;;5060311;28;20482;-84
2022/12/25 11:31:25;;;;;;;639.53;576.73;;;9.90;99.90;;;;;;5062372;28;20455;-82
2022/12/25 11:33:55;;;;;;;652.63;589.73;;;9.90;99.90;;;;;;5053469;28;20992;-82
2022/12/25 11:36:28;;;;;;;647.57;584.77;;;9.90;99.90;;;;;;5060458;28;20448;-83
2022/12/25 11:38:55;;;;;;;643.47;580.60;;;9.90;99.90;;;;;;5062194;28;20440;-86
2022/12/25 11:41:28;;;;;;;647.40;584.50;;;9.80;99.90;;;;;;5062654;28;20459;-83
2022/12/25 11:46:50;;;;;;;638.13;574.43;;;9.80;99.90;;;;;;5059486;28;21030;-85
2022/12/25 11:49:52;;;;;;;628.73;564.47;;;9.80;99.90;;;;;;5061712;28;20531;-83
2022/12/25 11:52:21;;;;;;;627.43;563.73;;;9.80;99.90;;;;;;5060438;28;20457;-83
2022/12/25 11:54:55;;;;;;;632.93;570.17;;;9.90;99.90;;;;;;5061303;28;20462;-85
2022/12/25 11:57:41;;;;;;;632.70;568.87;;;9.70;99.90;;;;;;5060949;28;20454;-84
2022/12/25 12:00:13;;;;;;;633.67;569.40;;;9.80;99.90;;;;;;5060517;28;20458;-84
2022/12/25 12:02:45;;;;;;;637.30;572.80;;;9.80;99.90;;;;;;5061352;28;20451;-84
2022/12/25 12:06:12;;;;;;;635.53;570.90;;;9.80;99.90;;;;;;5061914;28;20527;-84
2022/12/25 12:08:39;;;;;;;630.67;565.67;;;9.80;99.90;;;;;;5050862;28;20471;-84
2022/12/25 12:11:17;;;;;;;626.97;562.73;;;9.80;99.90;;;;;;5059076;28;20458;-83
2022/12/25 12:14:01;;;;;;;638.43;572.90;;;9.80;99.90;;;;;;5059074;28;20525;-85
2022/12/25 12:16:28;;;;;;;637.13;572.03;;;9.80;99.90;;;;;;5057654;28;20458;-84
2022/12/25 12:18:55;;;;;;;634.83;569.63;;;9.80;99.90;;;;;;5058506;28;20827;-82
2022/12/25 12:21:23;;;;;;;642.63;577.60;;;9.80;99.90;;;;;;5060772;28;20448;-85
2022/12/25 12:23:54;;;;;;;644.57;579.90;;;9.70;99.90;;;;;;5060399;28;20463;-85
2022/12/25 12:26:23;;;;;;;640.33;575.00;;;9.80;99.90;;;;;;5062015;28;20485;-84
2022/12/25 12:28:54;;;;;;;640.07;575.87;;;9.70;99.90;;;;;;5059623;28;20479;-85
2022/12/25 12:31:21;;;;;;;644.10;578.70;;;9.70;99.90;;;;;;5040390;28;20456;-85
2022/12/25 12:33:54;;;;;;;645.57;579.53;;;9.70;99.90;;;;;;5045644;28;20477;-85
2022/12/25 12:36:25;;;;;;;644.73;579.43;;;9.70;99.90;;;;;;5061722;28;20462;-84
2022/12/25 12:38:54;;;;;;;635.77;570.57;;;9.70;99.90;;;;;;5061493;28;20452;-84
2022/12/25 12:41:22;;;;;;;627.43;562.00;;;9.70;99.90;;;;;;5060615;28;20829;-85
2022/12/25 12:43:57;;;;;;;638.70;574.17;;;9.70;99.90;;;;;;5060648;28;20991;-84
2022/12/25 12:46:26;;;;;;;645.73;579.93;;;9.80;99.90;;;;;;5061583;28;20719;-85
2022/12/25 12:48:55;;;;;;;639.00;573.70;;;9.80;99.90;;;;;;5061426;28;20478;-85
2022/12/25 12:51:29;;;;;;;638.73;573.43;;;9.80;99.90;;;;;;5061862;28;20484;-84
2022/12/25 12:54:20;;;;;;;645.10;580.00;;;9.90;99.90;;;;;;5061331;28;20467;-84
2022/12/25 12:56:58;;;;;;;641.47;576.10;;;9.90;99.90;;;;;;5060426;28;20452;-85
2022/12/25 13:05:00;;;;;;;650.43;586.17;;;9.90;99.90;;;;;;5099109;22;20994;-85
2022/12/25 13:07:50;;;;;;;644.33;579.83;;;9.90;99.90;;;;;;5082989;28;20540;-85
2022/12/25 13:10:25;;;;;;;639.23;574.97;;;10.00;99.90;;;;;;5080359;28;20485;-86
2022/12/25 13:13:44;;;;;;;628.23;563.93;;;9.90;99.90;;;;;;5079207;28;20477;-84
2022/12/25 13:16:21;;;;;;;653.17;588.73;;;10.00;99.90;;;;;;5036242;28;20456;-84
2022/12/25 13:18:50;;;;;;;633.43;569.30;;;9.90;99.90;;;;;;5082410;28;20448;-85
2022/12/25 13:21:22;;;;;;;630.90;565.97;;;10.00;99.90;;;;;;5074187;28;20450;-86
2022/12/25 13:24:21;;;;;;;645.47;581.17;;;10.00;99.90;;;;;;5070268;28;20468;-83
2022/12/25 13:26:58;;;;;;;653.17;588.27;;;10.00;99.90;;;;;;5070920;28;20908;-83
2022/12/25 13:29:36;;;;;;;629.93;566.63;;;10.00;99.90;;;;;;5080826;28;20474;-84
2022/12/25 13:32:08;;;;;;;648.90;585.00;;;10.10;99.90;;;;;;5065431;28;20451;-84
2022/12/25 13:34:37;;;;;;;649.00;585.00;;;10.00;99.90;;;;;;5070566;28;20474;-84
2022/12/25 13:37:17;;;;;;;652.47;588.57;;;10.00;99.90;;;;;;5081418;28;20514;-84
2022/12/25 13:39:50;;;;;;;638.53;575.53;;;10.00;99.90;;;;;;5062611;28;20447;-86
2022/12/25 13:42:19;;;;;;;640.07;577.10;;;10.00;99.90;;;;;;5068369;28;20537;-85
2022/12/25 13:44:48;;;;;;;648.50;584.70;;;10.00;99.90;;;;;;5067847;28;20463;-86
2022/12/25 13:50:15;;;;;;;643.00;579.80;;;10.00;99.90;;;;;;5067735;28;20479;-83
2022/12/25 13:52:42;;;;;;;646.20;583.20;;;10.00;99.90;;;;;;5063783;28;20518;-83
2022/12/25 13:55:22;;;;;;;658.63;595.87;;;10.20;99.90;;;;;;5077663;28;20442;-84
2022/12/25 13:58:40;;;;;;;659.13;596.27;;;10.10;99.90;;;;;;5084530;28;20452;-84
2022/12/25 14:08:30;;;;;;;650.03;588.20;;;10.00;99.90;;;;;;4831232;29;20466;-84
2022/12/25 14:11:09;;;;;;;647.67;585.40;;;10.10;99.90;;;;;;4870451;29;20454;-84
2022/12/25 14:13:40;;;;;;;653.97;591.27;;;10.10;99.90;;;;;;4974806;28;20490;-84
2022/12/25 14:16:08;;;;;;;661.03;598.07;;;10.10;99.90;;;;;;5065166;28;20564;-84
2022/12/25 14:18:54;;;;;;;657.23;594.37;;;10.10;99.90;;;;;;5065159;28;20551;-84
2022/12/25 14:21:31;;;;;;;658.07;595.47;;;10.00;99.90;;;;;;5045436;28;20765;-85
2022/12/25 14:27:21;;;;;;;657.53;594.77;;;10.20;99.90;;;;;;4757602;26;21170;-84
2022/12/25 14:29:51;;;;;;;655.53;593.07;;;10.10;99.90;;;;;;5000467;28;20546;-85
2022/12/25 14:42:58;;;;;;;;;;;;;;;;;;;;;
2022/12/25 14:45:29;;;;;;;661.40;597.10;;;10.00;99.90;;;;;;4829939;29;20470;-84
2022/12/25 14:47:58;;;;;;;659.87;596.67;;;9.90;99.90;;;;;;4943195;29;20460;-84
2022/12/25 14:50:27;;;;;;;654.17;590.57;;;9.90;99.90;;;;;;4975049;28;20588;-82
2022/12/25 14:52:54;;;;;;;656.10;592.47;;;10.00;99.90;;;;;;5030347;28;20484;-83
2022/12/25 14:55:23;;;;;;;666.27;602.60;;;9.90;99.90;;;;;;5056557;28;20451;-83
2022/12/25 14:57:54;;;;;;;658.90;595.40;;;10.00;99.90;;;;;;5056647;28;20457;-84
2022/12/25 15:00:24;;;;;;;656.80;592.30;;;9.90;99.90;;;;;;5058523;28;20469;-83
2022/12/25 15:02:55;;;;;;;669.60;605.40;;;9.90;99.90;;;;;;5054666;28;20475;-83
2022/12/25 15:05:25;;;;;;;675.13;610.90;;;10.00;99.90;;;;;;5056832;28;20458;-83
2022/12/25 15:08:04;;;;;;;670.43;605.03;;;9.90;99.90;;;;;;5060382;28;20451;-83
2022/12/25 15:10:31;;;;;;;664.67;599.27;;;10.00;99.90;;;;;;5060083;28;20475;-83
2022/12/25 15:12:58;;;;;;;660.40;596.30;;;10.00;99.90;;;;;;5055020;28;20475;-84
2022/12/25 15:15:24;;;;;;;671.47;607.40;;;10.00;99.90;;;;;;5054656;28;20448;-84
2022/12/25 15:17:53;;;;;;;662.27;597.80;;;10.00;99.90;;;;;;5048703;28;20455;-84
2022/12/25 15:20:24;;;;;;;670.37;605.37;;;10.00;99.90;;;;;;5059592;28;20447;-83
2022/12/25 15:22:51;;;;;;;681.57;615.47;;;10.00;99.90;;;;;;5059700;28;20508;-84
2022/12/25 15:25:19;;;;;;;684.43;618.10;;;10.10;99.90;;;;;;5057109;28;20476;-84
2022/12/25 15:27:46;;;;;;;672.63;607.37;;;10.10;99.90;;;;;;5060796;28;20524;-84
2022/12/25 15:30:13;;;;;;;680.63;615.63;;;10.00;99.90;;;;;;5056980;28;20859;-85
2022/12/25 15:32:40;;;;;;;678.03;613.53;;;10.10;99.90;;;;;;5059931;28;20470;-83
2022/12/25 15:35:14;;;;;;;686.60;622.90;;;10.00;99.90;;;;;;5058982;28;20459;-84
2022/12/25 15:37:41;;;;;;;669.73;606.27;;;10.00;99.90;;;;;;5057571;28;20979;-84
2022/12/25 15:40:11;;;;;;;665.87;603.37;;;10.00;99.90;;;;;;5058823;28;20451;-84
2022/12/25 15:42:38;;;;;;;671.73;609.40;;;9.90;99.90;;;;;;5043375;28;20447;-84
2022/12/25 15:45:06;;;;;;;678.10;615.60;;;9.90;99.90;;;;;;5060420;28;20864;-84
2022/12/25 15:47:33;;;;;;;674.87;611.47;;;9.90;99.90;;;;;;5058532;28;20467;-84
2022/12/25 15:49:59;;;;;;;670.67;608.70;;;9.90;99.90;;;;;;5060985;28;20479;-84
2022/12/25 15:52:27;;;;;;;666.07;604.37;;;9.90;99.90;;;;;;5057159;28;20452;-84
2022/12/25 15:54:54;;;;;;;668.57;607.07;;;9.90;99.90;;;;;;5057182;28;20459;-84
2022/12/25 15:57:22;;;;;;;669.57;607.60;;;9.90;99.90;;;;;;5058542;28;20452;-84